Time;durP1;ratioP1;P1;durP2;ratioP2;P2;SDS_P1;SDS_P2;PMS_P1;PMS_P2;Temp;Humidity;BMP_temperature;BMP_pressure;BME280_temperature;BME280_humidity;BME280_pressure;Samples;Min_cycle;Max_cycle;Signal;HPM_P1;HPM_P2
2023/03/23 00:00:08;;;;;;;5.47;1.95;;;;;;;;;;4947261;28;20137;-68
2023/03/23 00:02:37;;;;;;;5.10;2.00;;;;;;;;;;4909177;28;20051;-68
2023/03/23 00:05:05;;;;;;;3.85;1.80;;;;;;;;;;4928773;28;20051;-68
2023/03/23 00:07:32;;;;;;;3.85;1.80;;;;;;;;;;4931174;28;20058;-67
2023/03/23 00:10:10;;;;;;;5.28;2.10;;;;;;;;;;4977114;28;20096;-68
2023/03/23 00:12:41;;;;;;;8.73;2.17;;;;;;;;;;4971974;28;20050;-68
2023/03/23 00:15:08;;;;;;;;;;;;;;;;;;4989498;28;20074;-68
2023/03/23 00:17:35;;;;;;;5.18;1.80;;;;;;;;;;4943694;28;19922;-68
2023/03/23 00:20:06;;;;;;;3.78;1.90;;;;;;;;;;4938722;28;20262;-67
2023/03/23 00:22:38;;;;;;;4.57;2.10;;;;;;;;;;4988208;28;20069;-69
2023/03/23 00:25:05;;;;;;;5.72;2.00;;;;;;;;;;4990382;28;20059;-68
2023/03/23 00:27:32;;;;;;;4.80;1.77;;;;;;;;;;4951065;28;20061;-68
2023/03/23 00:29:58;;;;;;;4.22;2.05;;;;;;;;;;4971783;28;20062;-67
2023/03/23 00:32:28;;;;;;;6.28;2.53;;;;;;;;;;4958787;28;20113;-69
2023/03/23 00:34:58;;;;;;;6.70;2.00;;;;;;;;;;4937666;28;20059;-68
2023/03/23 00:37:26;;;;;;;4.13;1.98;;;;;;;;;;4944633;28;20063;-69
2023/03/23 00:39:57;;;;;;;4.78;1.92;;;;;;;;;;4922575;28;20074;-67
2023/03/23 00:42:24;;;;;;;5.32;2.10;;;;;;;;;;4959894;28;20059;-68
2023/03/23 00:44:53;;;;;;;4.95;2.10;;;;;;;;;;4944495;28;20058;-68
2023/03/23 00:47:20;;;;;;;3.13;1.63;;;;;;;;;;4991777;28;20069;-69
2023/03/23 00:49:47;;;;;;;4.60;2.00;;;;;;;;;;4960191;28;20058;-69
2023/03/23 00:52:14;;;;;;;3.55;1.52;;;;;;;;;;4944702;28;20075;-69
2023/03/23 00:54:42;;;;;;;4.10;1.77;;;;;;;;;;4929089;28;20273;-69
2023/03/23 00:57:09;;;;;;;5.47;2.03;;;;;;;;;;4950108;28;20067;-70
2023/03/23 00:59:36;;;;;;;4.95;1.90;;;;;;;;;;4937672;28;20051;-68
2023/03/23 01:02:02;;;;;;;3.80;1.92;;;;;;;;;;4936900;28;20054;-68
2023/03/23 01:04:31;;;;;;;3.75;1.90;;;;;;;;;;4937974;28;20079;-68
2023/03/23 01:07:00;;;;;;;5.40;1.80;;;;;;;;;;4953801;28;20110;-67
2023/03/23 01:09:26;;;;;;;4.35;1.77;;;;;;;;;;4936947;28;20059;-68
2023/03/23 01:11:55;;;;;;;4.32;1.73;;;;;;;;;;4938727;28;20138;-69
2023/03/23 01:14:21;;;;;;;;;;;;;;;;;;4940072;28;20065;-68
2023/03/23 01:16:48;;;;;;;4.47;1.58;;;;;;;;;;4950489;28;20006;-67
2023/03/23 01:19:15;;;;;;;5.38;1.70;;;;;;;;;;4951869;28;20145;-70
2023/03/23 01:21:42;;;;;;;5.78;1.95;;;;;;;;;;4929683;28;20055;-68
2023/03/23 01:24:09;;;;;;;5.82;1.80;;;;;;;;;;4940721;28;20066;-69
2023/03/23 01:26:35;;;;;;;4.70;2.15;;;;;;;;;;4919880;28;20050;-68
2023/03/23 01:29:04;;;;;;;4.82;1.75;;;;;;;;;;4928721;28;20059;-67
2023/03/23 01:31:31;;;;;;;5.82;2.05;;;;;;;;;;4936270;28;20055;-69
2023/03/23 01:33:57;;;;;;;4.75;1.85;;;;;;;;;;4932090;28;20105;-67
2023/03/23 01:36:26;;;;;;;5.93;1.73;;;;;;;;;;4938682;28;20051;-69
2023/03/23 01:38:53;;;;;;;4.93;2.20;;;;;;;;;;4930416;28;20063;-68
2023/03/23 01:41:20;;;;;;;4.53;1.88;;;;;;;;;;4931520;28;20130;-68
2023/03/23 01:43:59;;;;;;;7.00;1.83;;;;;;;;;;4946081;28;20105;-68
2023/03/23 01:46:25;;;;;;;;;;;;;;;;;;4940406;28;20087;-68
2023/03/23 01:48:53;;;;;;;3.85;1.73;;;;;;;;;;4934283;28;20036;-67
2023/03/23 01:51:21;;;;;;;3.65;1.55;;;;;;;;;;4939206;28;20055;-68
2023/03/23 01:53:49;;;;;;;3.92;1.77;;;;;;;;;;4935803;28;20155;-68
2023/03/23 01:56:16;;;;;;;;;;;;;;;;;;4941337;28;20083;-69
2023/03/23 01:58:43;;;;;;;4.90;1.67;;;;;;;;;;4917933;28;20242;-68
2023/03/23 02:01:11;;;;;;;5.13;1.77;;;;;;;;;;4923091;28;20142;-67
2023/03/23 02:03:38;;;;;;;4.47;1.92;;;;;;;;;;4936095;28;20114;-67
2023/03/23 02:06:07;;;;;;;6.35;1.85;;;;;;;;;;4942593;28;20098;-67
2023/03/23 02:08:34;;;;;;;4.45;1.83;;;;;;;;;;4963711;28;20162;-68
2023/03/23 02:11:01;;;;;;;4.40;1.67;;;;;;;;;;4939295;28;20098;-68
2023/03/23 02:13:28;;;;;;;4.13;1.80;;;;;;;;;;4953197;28;20047;-67
2023/03/23 02:15:59;;;;;;;5.07;1.83;;;;;;;;;;4932241;28;20058;-67
2023/03/23 02:18:36;;;;;;;5.55;1.83;;;;;;;;;;4952378;28;20070;-68
2023/03/23 02:21:31;;;;;;;5.18;1.80;;;;;;;;;;4962707;28;20114;-68
2023/03/23 02:24:11;;;;;;;3.25;1.83;;;;;;;;;;4957961;28;20055;-69
2023/03/23 02:26:48;;;;;;;3.92;1.88;;;;;;;;;;4956771;28;20150;-68
2023/03/23 02:29:22;;;;;;;4.13;1.98;;;;;;;;;;4965154;28;20145;-67
2023/03/23 02:31:58;;;;;;;4.97;1.92;;;;;;;;;;4965020;28;20214;-67
2023/03/23 02:34:28;;;;;;;6.20;1.95;;;;;;;;;;4954633;28;20128;-66
2023/03/23 02:36:57;;;;;;;4.72;1.83;;;;;;;;;;4949969;28;20058;-66
2023/03/23 02:39:25;;;;;;;3.33;1.63;;;;;;;;;;4943997;28;20158;-66
2023/03/23 02:41:53;;;;;;;4.75;2.22;;;;;;;;;;4944534;28;20067;-67
2023/03/23 02:44:20;;;;;;;6.43;2.17;;;;;;;;;;4940724;28;20059;-69
2023/03/23 02:47:04;;;;;;;;;;;;;;;;;;;;;
2023/03/23 02:49:43;;;;;;;5.57;2.13;;;;;;;;;;4941933;28;20059;-67
2023/03/23 02:52:14;;;;;;;4.13;1.92;;;;;;;;;;4945441;28;20082;-65
2023/03/23 02:54:42;;;;;;;4.30;1.80;;;;;;;;;;4948212;28;20063;-68
2023/03/23 02:57:09;;;;;;;4.77;2.07;;;;;;;;;;4959089;28;20113;-67
2023/03/23 02:59:36;;;;;;;3.60;1.75;;;;;;;;;;4959627;28;20073;-67
2023/03/23 03:02:04;;;;;;;4.57;2.10;;;;;;;;;;4958080;28;20113;-68
2023/03/23 03:04:32;;;;;;;4.65;1.75;;;;;;;;;;4914704;28;20056;-68
2023/03/23 03:07:16;;;;;;;4.30;1.88;;;;;;;;;;4932663;28;20118;-70
2023/03/23 03:09:45;;;;;;;5.15;2.08;;;;;;;;;;4943101;28;20142;-67
2023/03/23 03:12:13;;;;;;;6.20;2.15;;;;;;;;;;4960921;28;20050;-68
2023/03/23 03:14:43;;;;;;;4.82;2.03;;;;;;;;;;4981695;28;20081;-68
2023/03/23 03:17:13;;;;;;;5.95;2.08;;;;;;;;;;4956588;28;20051;-68
2023/03/23 03:19:40;;;;;;;4.35;1.88;;;;;;;;;;4957497;28;20109;-68
2023/03/23 03:22:09;;;;;;;6.80;2.10;;;;;;;;;;4975840;28;20136;-67
2023/03/23 03:24:36;;;;;;;5.10;2.28;;;;;;;;;;4979726;28;20325;-67
2023/03/23 03:27:04;;;;;;;4.82;1.83;;;;;;;;;;4940556;28;20051;-69
2023/03/23 03:29:32;;;;;;;4.55;2.20;;;;;;;;;;4944545;28;20083;-68
2023/03/23 03:31:59;;;;;;;5.65;2.17;;;;;;;;;;4982058;28;20062;-68
2023/03/23 03:34:26;;;;;;;4.43;1.77;;;;;;;;;;4958802;28;20062;-69
2023/03/23 03:36:54;;;;;;;6.45;2.20;;;;;;;;;;4974644;28;20062;-67
2023/03/23 03:39:22;;;;;;;5.85;2.35;;;;;;;;;;4962998;28;20065;-67
2023/03/23 03:41:49;;;;;;;7.03;2.20;;;;;;;;;;4966926;28;20113;-67
2023/03/23 03:44:16;;;;;;;3.83;1.75;;;;;;;;;;4933096;28;20055;-67
2023/03/23 03:46:42;;;;;;;5.78;2.38;;;;;;;;;;4947193;28;20216;-68
2023/03/23 03:49:10;;;;;;;3.53;1.75;;;;;;;;;;4956965;28;20109;-67
2023/03/23 03:51:36;;;;;;;4.45;1.90;;;;;;;;;;4961238;28;20059;-68
2023/03/23 03:54:03;;;;;;;5.55;2.03;;;;;;;;;;4952975;28;20059;-67
2023/03/23 03:56:31;;;;;;;3.75;2.00;;;;;;;;;;4963120;28;20058;-68
2023/03/23 03:58:59;;;;;;;4.90;2.00;;;;;;;;;;4968385;28;20047;-69
2023/03/23 04:01:25;;;;;;;5.85;2.20;;;;;;;;;;4970103;28;20062;-70
2023/03/23 04:03:52;;;;;;;5.40;2.58;;;;;;;;;;4964385;28;20130;-68
2023/03/23 04:06:18;;;;;;;4.78;2.10;;;;;;;;;;4961701;28;20046;-67
2023/03/23 04:08:45;;;;;;;4.82;2.10;;;;;;;;;;4958580;28;20068;-67
2023/03/23 04:11:13;;;;;;;5.40;2.03;;;;;;;;;;4955597;28;20317;-67
2023/03/23 04:13:41;;;;;;;7.10;2.10;;;;;;;;;;4962241;28;20059;-67
2023/03/23 04:16:08;;;;;;;5.00;2.13;;;;;;;;;;4934535;28;20063;-68
2023/03/23 04:18:35;;;;;;;6.47;2.10;;;;;;;;;;4953528;28;20058;-69
2023/03/23 04:21:02;;;;;;;5.25;1.92;;;;;;;;;;4935889;28;20146;-69
2023/03/23 04:23:30;;;;;;;4.15;1.92;;;;;;;;;;4955768;28;20110;-67
2023/03/23 04:25:57;;;;;;;5.35;1.90;;;;;;;;;;4917319;28;20105;-68
2023/03/23 04:28:24;;;;;;;6.93;2.15;;;;;;;;;;4940997;28;20057;-68
2023/03/23 04:30:54;;;;;;;5.75;1.95;;;;;;;;;;4941919;28;20074;-68
2023/03/23 04:33:21;;;;;;;4.50;1.80;;;;;;;;;;4957771;28;20059;-67
2023/03/23 04:35:47;;;;;;;7.43;1.77;;;;;;;;;;4988544;28;20141;-67
2023/03/23 04:38:15;;;;;;;3.28;1.77;;;;;;;;;;4960623;28;20050;-68
2023/03/23 04:40:42;;;;;;;4.43;1.70;;;;;;;;;;4941193;28;20051;-67
2023/03/23 04:43:09;;;;;;;5.25;1.80;;;;;;;;;;4944368;28;20059;-68
2023/03/23 04:45:37;;;;;;;4.40;1.60;;;;;;;;;;4933982;28;20055;-66
2023/03/23 04:48:06;;;;;;;2.95;1.60;;;;;;;;;;4957157;28;20066;-68
2023/03/23 04:50:33;;;;;;;3.97;1.73;;;;;;;;;;4937366;28;20058;-69
2023/03/23 04:53:03;;;;;;;7.13;1.98;;;;;;;;;;4947763;28;20117;-67
2023/03/23 04:55:30;;;;;;;3.75;1.58;;;;;;;;;;4944463;28;20063;-67
2023/03/23 04:58:00;;;;;;;6.22;1.65;;;;;;;;;;4957399;28;20140;-69
2023/03/23 05:00:26;;;;;;;6.80;1.60;;;;;;;;;;4988741;28;20082;-66
2023/03/23 05:02:55;;;;;;;3.20;1.63;;;;;;;;;;4958059;28;20170;-67
2023/03/23 05:05:24;;;;;;;6.72;2.00;;;;;;;;;;4946123;28;20051;-66
2023/03/23 05:07:51;;;;;;;4.32;1.67;;;;;;;;;;4952765;28;20069;-66
2023/03/23 05:10:17;;;;;;;5.68;1.98;;;;;;;;;;4953535;28;20079;-69
2023/03/23 05:12:44;;;;;;;5.75;1.85;;;;;;;;;;4962277;28;20161;-67
2023/03/23 05:15:11;;;;;;;9.23;1.88;;;;;;;;;;4963960;28;20065;-67
2023/03/23 05:17:38;;;;;;;4.00;1.45;;;;;;;;;;4950071;28;20054;-68
2023/03/23 05:20:08;;;;;;;3.72;1.48;;;;;;;;;;4961524;28;20073;-68
2023/03/23 05:22:36;;;;;;;5.13;1.52;;;;;;;;;;4948511;28;20061;-68
2023/03/23 05:25:03;;;;;;;9.02;1.50;;;;;;;;;;4949284;28;20169;-68
2023/03/23 05:27:30;;;;;;;8.95;1.38;;;;;;;;;;4932112;28;20066;-69
2023/03/23 05:29:58;;;;;;;5.70;1.67;;;;;;;;;;4949311;28;20063;-66
2023/03/23 05:32:28;;;;;;;8.03;1.50;;;;;;;;;;4939434;28;20059;-67
2023/03/23 05:34:55;;;;;;;4.55;1.50;;;;;;;;;;4969181;28;20065;-67
2023/03/23 05:37:21;;;;;;;8.15;1.50;;;;;;;;;;4950826;28;20157;-66
2023/03/23 05:39:53;;;;;;;2.95;1.30;;;;;;;;;;4951868;28;20061;-68
2023/03/23 05:42:19;;;;;;;4.25;1.77;;;;;;;;;;4958484;28;20074;-67
2023/03/23 05:44:46;;;;;;;5.60;1.25;;;;;;;;;;4935914;28;20294;-68
2023/03/23 05:47:13;;;;;;;4.20;1.70;;;;;;;;;;4948773;28;20063;-68
2023/03/23 05:49:39;;;;;;;7.22;1.60;;;;;;;;;;4961292;28;20062;-67
2023/03/23 05:52:11;;;;;;;4.75;1.42;;;;;;;;;;4954851;28;20047;-67
2023/03/23 05:54:37;;;;;;;6.55;1.60;;;;;;;;;;4936030;28;20054;-67
2023/03/23 05:57:08;;;;;;;5.15;1.35;;;;;;;;;;4963810;28;20109;-68
2023/03/23 05:59:35;;;;;;;7.00;1.52;;;;;;;;;;4962711;28;20061;-69
2023/03/23 06:02:01;;;;;;;6.22;1.75;;;;;;;;;;4971169;28;20057;-66
2023/03/23 06:04:33;;;;;;;5.93;1.60;;;;;;;;;;4994427;28;20066;-67
2023/03/23 06:06:59;;;;;;;5.22;1.70;;;;;;;;;;4971180;28;20055;-68
2023/03/23 06:09:28;;;;;;;2.80;1.33;;;;;;;;;;4967146;28;20050;-67
2023/03/23 06:11:57;;;;;;;5.53;1.45;;;;;;;;;;4966432;28;20568;-68
2023/03/23 06:14:26;;;;;;;4.97;2.08;;;;;;;;;;4944284;28;20062;-68
2023/03/23 06:16:52;;;;;;;;;;;;;;;;;;4957316;28;20165;-68
2023/03/23 06:19:19;;;;;;;4.18;1.05;;;;;;;;;;4954071;28;19973;-66
2023/03/23 06:21:45;;;;;;;4.97;1.25;;;;;;;;;;4963879;28;20065;-67
2023/03/23 06:24:12;;;;;;;5.63;1.50;;;;;;;;;;4957327;28;20109;-68
2023/03/23 06:26:40;;;;;;;2.83;1.30;;;;;;;;;;4962393;28;20062;-66
2023/03/23 06:29:10;;;;;;;4.10;1.50;;;;;;;;;;4946418;28;20061;-67
2023/03/23 06:32:01;;;;;;;4.22;1.20;;;;;;;;;;4954473;28;20073;-66
2023/03/23 06:34:33;;;;;;;8.23;1.38;;;;;;;;;;4921158;28;20055;-69
2023/03/23 06:37:16;;;;;;;3.97;1.00;;;;;;;;;;4931008;28;20054;-69
2023/03/23 06:39:43;;;;;;;3.35;1.13;;;;;;;;;;4925623;28;20055;-67
2023/03/23 06:42:11;;;;;;;4.93;1.40;;;;;;;;;;4948243;28;20055;-68
2023/03/23 06:47:27;;;;;;;5.05;1.40;;;;;;;;;;4928934;28;20134;-66
2023/03/23 06:49:57;;;;;;;6.25;1.33;;;;;;;;;;4969892;28;20066;-66
2023/03/23 06:52:24;;;;;;;11.05;1.73;;;;;;;;;;4990247;28;20117;-68
2023/03/23 06:54:55;;;;;;;5.63;1.48;;;;;;;;;;4972953;28;20059;-68
2023/03/23 06:57:22;;;;;;;4.88;1.30;;;;;;;;;;4931582;28;20057;-66
2023/03/23 06:59:50;;;;;;;10.02;1.55;;;;;;;;;;4944691;28;20073;-67
2023/03/23 07:02:23;;;;;;;6.25;1.23;;;;;;;;;;4954876;28;20081;-67
2023/03/23 07:04:54;;;;;;;2.55;1.08;;;;;;;;;;4940079;28;20050;-67
2023/03/23 07:07:23;;;;;;;7.13;1.33;;;;;;;;;;4922133;28;20077;-68
2023/03/23 07:09:49;;;;;;;4.32;1.00;;;;;;;;;;4920226;28;20059;-68
2023/03/23 07:12:19;;;;;;;7.18;1.42;;;;;;;;;;4950432;28;20074;-67
2023/03/23 07:14:46;;;;;;;4.88;1.42;;;;;;;;;;4951830;28;20156;-68
2023/03/23 07:17:12;;;;;;;4.00;1.38;;;;;;;;;;4947146;28;20086;-65
2023/03/23 07:19:43;;;;;;;6.07;1.33;;;;;;;;;;4948870;28;20106;-66
2023/03/23 07:22:13;;;;;;;8.55;1.30;;;;;;;;;;4914385;28;20051;-67
2023/03/23 07:24:42;;;;;;;7.82;1.30;;;;;;;;;;4912218;28;20055;-68
2023/03/23 07:27:11;;;;;;;4.30;1.23;;;;;;;;;;4926764;28;20058;-67
2023/03/23 07:29:41;;;;;;;6.57;1.38;;;;;;;;;;4936703;28;20060;-68
2023/03/23 07:32:13;;;;;;;3.90;1.23;;;;;;;;;;4947625;28;20093;-66
2023/03/23 07:34:39;;;;;;;5.70;1.17;;;;;;;;;;4952071;28;20066;-66
2023/03/23 07:37:07;;;;;;;4.38;1.27;;;;;;;;;;4921959;28;20114;-67
2023/03/23 07:39:50;;;;;;;4.85;1.35;;;;;;;;;;4957335;28;20241;-67
2023/03/23 07:42:20;;;;;;;5.30;1.20;;;;;;;;;;4944615;28;20054;-67
2023/03/23 07:44:56;;;;;;;7.28;1.38;;;;;;;;;;4932096;28;20050;-66
2023/03/23 07:47:22;;;;;;;12.35;1.70;;;;;;;;;;4938690;28;20073;-68
2023/03/23 07:49:59;;;;;;;3.28;1.30;;;;;;;;;;4921301;28;20119;-67
2023/03/23 07:52:36;;;;;;;5.72;1.30;;;;;;;;;;4977721;28;20050;-67
2023/03/23 07:55:05;;;;;;;4.00;1.10;;;;;;;;;;4889262;28;20061;-67
2023/03/23 07:57:34;;;;;;;6.72;1.40;;;;;;;;;;4858770;29;20077;-68
2023/03/23 08:00:11;;;;;;;3.22;1.30;;;;;;;;;;4954022;28;20062;-67
2023/03/23 08:02:40;;;;;;;3.90;1.33;;;;;;;;;;4958614;28;20054;-67
2023/03/23 08:05:13;;;;;;;4.80;1.65;;;;;;;;;;4932241;28;20058;-67
2023/03/23 08:07:40;;;;;;;3.35;1.23;;;;;;;;;;4940358;28;20118;-67
2023/03/23 08:10:32;;;;;;;4.55;1.30;;;;;;;;;;4935268;28;20057;-66
2023/03/23 08:13:05;;;;;;;8.90;1.65;;;;;;;;;;4944331;28;20083;-67
2023/03/23 08:15:39;;;;;;;5.68;1.60;;;;;;;;;;4922484;28;20063;-67
2023/03/23 08:18:07;;;;;;;4.55;1.42;;;;;;;;;;4912833;28;20050;-68
2023/03/23 08:20:38;;;;;;;5.20;1.63;;;;;;;;;;4950245;28;20046;-67
2023/03/23 08:23:07;;;;;;;5.88;1.75;;;;;;;;;;4950236;28;20134;-67
2023/03/23 08:25:37;;;;;;;6.13;1.92;;;;;;;;;;4948755;28;20058;-67
2023/03/23 08:28:06;;;;;;;3.58;1.33;;;;;;;;;;4937573;28;20050;-68
2023/03/23 08:30:36;;;;;;;6.10;1.75;;;;;;;;;;4949606;28;20140;-67
2023/03/23 08:33:09;;;;;;;3.88;1.60;;;;;;;;;;4916187;28;20039;-66
2023/03/23 08:35:40;;;;;;;5.60;1.50;;;;;;;;;;4934094;28;20054;-67
2023/03/23 08:38:13;;;;;;;5.32;1.55;;;;;;;;;;4943915;28;20220;-67
2023/03/23 08:40:40;;;;;;;5.22;1.65;;;;;;;;;;4960015;28;20121;-67
2023/03/23 08:43:10;;;;;;;7.80;1.30;;;;;;;;;;4953615;28;20058;-66
2023/03/23 08:45:41;;;;;;;4.25;1.23;;;;;;;;;;4937345;28;20054;-67
2023/03/23 08:48:08;;;;;;;11.85;1.73;;;;;;;;;;4936974;28;20055;-66
2023/03/23 08:50:35;;;;;;;4.15;1.38;;;;;;;;;;4937983;28;20097;-67
2023/03/23 08:53:07;;;;;;;4.32;1.52;;;;;;;;;;4937715;28;20059;-67
2023/03/23 08:55:33;;;;;;;4.95;1.35;;;;;;;;;;4927611;28;20063;-66
2023/03/23 08:58:01;;;;;;;5.93;1.25;;;;;;;;;;4961356;28;20066;-67
2023/03/23 09:00:29;;;;;;;11.65;1.40;;;;;;;;;;4957480;28;20141;-67
2023/03/23 09:02:59;;;;;;;5.53;1.10;;;;;;;;;;4951073;28;20078;-67
2023/03/23 09:05:29;;;;;;;3.35;1.52;;;;;;;;;;4918022;28;20138;-67
2023/03/23 09:07:59;;;;;;;2.80;1.45;;;;;;;;;;4913852;28;20134;-67
2023/03/23 09:10:33;;;;;;;7.72;1.90;;;;;;;;;;4923487;28;20071;-66
2023/03/23 09:13:02;;;;;;;5.68;1.13;;;;;;;;;;4930450;28;20212;-68
2023/03/23 09:15:30;;;;;;;4.40;1.20;;;;;;;;;;4944627;28;20055;-66
2023/03/23 09:17:57;;;;;;;2.78;1.08;;;;;;;;;;4952396;28;20137;-66
2023/03/23 09:20:27;;;;;;;3.30;1.13;;;;;;;;;;4968583;28;20050;-67
2023/03/23 09:22:57;;;;;;;3.08;1.30;;;;;;;;;;4952669;28;20047;-66
2023/03/23 09:25:29;;;;;;;5.70;1.20;;;;;;;;;;4946110;28;20055;-66
2023/03/23 09:27:57;;;;;;;6.60;1.30;;;;;;;;;;4956829;28;20106;-66
2023/03/23 09:30:27;;;;;;;4.85;1.20;;;;;;;;;;4945969;28;20055;-66
2023/03/23 09:33:03;;;;;;;3.20;1.10;;;;;;;;;;4931937;28;20059;-67
2023/03/23 09:35:31;;;;;;;6.57;1.33;;;;;;;;;;4933572;28;20055;-67
2023/03/23 09:38:02;;;;;;;3.40;1.35;;;;;;;;;;4946116;28;20113;-67
2023/03/23 09:40:36;;;;;;;2.78;1.25;;;;;;;;;;4956067;28;20141;-67
2023/03/23 09:43:08;;;;;;;3.58;1.23;;;;;;;;;;4934358;28;20146;-65
2023/03/23 09:45:38;;;;;;;5.50;1.20;;;;;;;;;;4933079;28;20226;-66
2023/03/23 09:48:17;;;;;;;5.85;1.30;;;;;;;;;;4948876;28;20055;-65
2023/03/23 09:50:46;;;;;;;3.80;1.30;;;;;;;;;;4937702;28;20069;-67
2023/03/23 09:53:16;;;;;;;7.60;1.58;;;;;;;;;;4972152;28;20062;-66
2023/03/23 09:55:45;;;;;;;2.65;0.93;;;;;;;;;;4926243;28;20118;-67
2023/03/23 09:58:19;;;;;;;5.22;1.02;;;;;;;;;;4957506;28;20042;-66
2023/03/23 10:00:53;;;;;;;3.58;1.10;;;;;;;;;;4923587;28;20119;-66
2023/03/23 10:03:23;;;;;;;4.90;1.50;;;;;;;;;;4921479;28;20199;-66
2023/03/23 10:05:52;;;;;;;4.55;1.17;;;;;;;;;;4909927;28;20059;-66
2023/03/23 10:08:22;;;;;;;5.32;1.50;;;;;;;;;;4917588;28;20070;-67
2023/03/23 10:11:01;;;;;;;4.70;1.30;;;;;;;;;;4918187;28;20071;-66
2023/03/23 10:13:35;;;;;;;6.20;1.40;;;;;;;;;;4928385;28;20069;-67
2023/03/23 10:16:03;;;;;;;4.32;1.30;;;;;;;;;;4905320;28;20055;-66
2023/03/23 10:18:37;;;;;;;1.92;0.95;;;;;;;;;;4939658;28;20066;-67
2023/03/23 10:21:14;;;;;;;5.43;1.20;;;;;;;;;;4915778;28;20048;-67
2023/03/23 10:23:51;;;;;;;4.85;1.30;;;;;;;;;;4944894;28;20137;-66
2023/03/23 10:26:33;;;;;;;2.80;1.10;;;;;;;;;;4899422;28;20059;-66
2023/03/23 10:29:10;;;;;;;5.53;1.30;;;;;;;;;;4891264;28;20062;-68
2023/03/23 10:31:44;;;;;;;6.63;1.40;;;;;;;;;;4958680;28;20050;-66
2023/03/23 10:34:18;;;;;;;9.23;1.25;;;;;;;;;;4919554;28;20053;-66
2023/03/23 10:36:55;;;;;;;3.53;1.42;;;;;;;;;;4871072;28;20159;-65
2023/03/23 10:39:26;;;;;;;5.97;1.50;;;;;;;;;;4887532;28;20060;-66
2023/03/23 10:41:53;;;;;;;5.55;1.15;;;;;;;;;;4960838;28;20058;-67
2023/03/23 10:44:25;;;;;;;7.32;1.40;;;;;;;;;;4967838;28;20112;-65
2023/03/23 10:46:56;;;;;;;7.25;1.20;;;;;;;;;;4960728;28;20085;-67
2023/03/23 10:49:26;;;;;;;6.47;1.63;;;;;;;;;;4972971;28;20077;-66
2023/03/23 10:51:57;;;;;;;4.65;1.40;;;;;;;;;;4956911;28;20149;-66
2023/03/23 10:54:27;;;;;;;8.05;1.60;;;;;;;;;;4963022;28;20093;-66
2023/03/23 10:56:55;;;;;;;4.78;1.60;;;;;;;;;;4934285;28;20149;-66
2023/03/23 10:59:42;;;;;;;9.38;1.65;;;;;;;;;;4964013;28;20133;-66
2023/03/23 11:02:15;;;;;;;9.32;2.03;;;;;;;;;;4964480;28;20058;-65
2023/03/23 11:04:48;;;;;;;3.30;1.13;;;;;;;;;;4958241;28;20146;-65
2023/03/23 11:07:19;;;;;;;9.07;1.73;;;;;;;;;;4900483;28;20140;-66
2023/03/23 11:10:06;;;;;;;;;;;;;;;;;;;;;
2023/03/23 11:12:36;;;;;;;9.05;1.45;;;;;;;;;;4952374;28;20063;-66
2023/03/23 11:15:19;;;;;;;11.30;1.40;;;;;;;;;;4907590;28;20066;-65
2023/03/23 11:17:55;;;;;;;3.17;1.17;;;;;;;;;;4928109;28;20055;-66
2023/03/23 11:20:35;;;;;;;4.90;1.38;;;;;;;;;;4901883;28;20051;-66
2023/03/23 11:23:09;;;;;;;6.25;1.30;;;;;;;;;;4922769;28;20054;-66
2023/03/23 11:25:57;;;;;;;4.90;1.70;;;;;;;;;;4909154;28;20051;-65
2023/03/23 11:28:29;;;;;;;6.57;1.67;;;;;;;;;;4869068;29;20058;-65
2023/03/23 11:30:56;;;;;;;7.13;1.50;;;;;;;;;;4925829;28;20055;-67
2023/03/23 11:33:25;;;;;;;10.65;1.45;;;;;;;;;;4932486;28;20148;-65
2023/03/23 11:36:05;;;;;;;6.47;1.50;;;;;;;;;;4913590;28;20074;-65
2023/03/23 11:38:39;;;;;;;4.03;1.20;;;;;;;;;;4923366;28;20063;-66
2023/03/23 11:41:14;;;;;;;10.90;1.95;;;;;;;;;;4958521;28;20121;-67
2023/03/23 11:43:47;;;;;;;5.60;1.63;;;;;;;;;;4954392;28;20097;-66
2023/03/23 11:46:18;;;;;;;7.03;1.55;;;;;;;;;;4947695;28;20054;-66
2023/03/23 11:48:52;;;;;;;5.40;1.33;;;;;;;;;;4926262;28;20061;-65
2023/03/23 11:51:22;;;;;;;5.28;1.58;;;;;;;;;;4944653;28;20059;-65
2023/03/23 11:53:55;;;;;;;6.40;1.63;;;;;;;;;;4937155;28;20085;-64
2023/03/23 11:56:25;;;;;;;7.32;1.50;;;;;;;;;;4920545;28;20057;-65
2023/03/23 11:58:52;;;;;;;7.70;1.80;;;;;;;;;;4950168;28;20062;-65
2023/03/23 12:01:27;;;;;;;6.43;1.83;;;;;;;;;;4941888;28;20140;-65
2023/03/23 12:04:04;;;;;;;5.43;1.45;;;;;;;;;;4950745;28;20058;-64
2023/03/23 12:06:41;;;;;;;8.10;2.15;;;;;;;;;;4925483;28;20075;-65
2023/03/23 12:09:16;;;;;;;5.35;1.90;;;;;;;;;;4925930;28;20094;-65
2023/03/23 12:11:50;;;;;;;6.78;1.58;;;;;;;;;;4977000;28;20069;-65
2023/03/23 12:14:21;;;;;;;7.78;1.50;;;;;;;;;;4966547;28;20050;-64
2023/03/23 12:17:00;;;;;;;4.30;1.20;;;;;;;;;;4935737;28;20105;-64
2023/03/23 12:19:32;;;;;;;9.40;1.42;;;;;;;;;;4953615;28;20066;-64
2023/03/23 12:22:05;;;;;;;6.05;1.65;;;;;;;;;;4945550;28;21098;-65
2023/03/23 12:24:37;;;;;;;7.88;1.20;;;;;;;;;;4926328;28;20069;-66
2023/03/23 12:27:10;;;;;;;5.68;1.60;;;;;;;;;;4925780;28;20055;-67
2023/03/23 12:29:47;;;;;;;6.82;1.33;;;;;;;;;;4975045;28;20087;-67
2023/03/23 12:32:41;;;;;;;;;;;;;;;;;;;;;
2023/03/23 12:35:16;;;;;;;8.20;1.50;;;;;;;;;;4950112;28;20105;-68
2023/03/23 12:37:54;;;;;;;7.78;1.70;;;;;;;;;;4878857;28;20091;-69
2023/03/23 12:40:31;;;;;;;6.32;1.27;;;;;;;;;;4903672;28;20048;-68
2023/03/23 12:43:12;;;;;;;4.65;1.35;;;;;;;;;;4904090;28;20060;-68
2023/03/23 12:45:51;;;;;;;6.68;1.58;;;;;;;;;;4882874;29;20257;-68
2023/03/23 12:58:40;;;;;;;6.80;1.13;;;;;;;;;;4952211;27;20440;-66
2023/03/23 13:01:13;;;;;;;7.53;1.83;;;;;;;;;;4913289;28;20059;-67
2023/03/23 13:33:52;;;;;;;;;;;;;;;;;;;;;
2023/03/23 13:38:53;;;;;;;2.87;1.07;;;;;;;;;;5898843;24;20103;-68
2023/03/23 13:41:30;;;;;;;2.08;1.00;;;;;;;;;;5931252;24;20274;-67
2023/03/23 13:44:06;;;;;;;3.58;1.00;;;;;;;;;;5923705;24;20033;-66
2023/03/23 13:46:38;;;;;;;3.03;1.13;;;;;;;;;;5892227;24;20118;-67
2023/03/23 13:49:27;;;;;;;4.22;1.25;;;;;;;;;;5897127;24;20043;-66
2023/03/23 13:52:18;;;;;;;3.33;1.38;;;;;;;;;;5894122;24;20040;-67
2023/03/23 13:54:53;;;;;;;2.47;0.98;;;;;;;;;;6005953;23;20029;-67
2023/03/23 13:57:31;;;;;;;3.75;1.05;;;;;;;;;;5984303;23;20055;-66
2023/03/23 14:11:02;;;;;;;4.03;1.20;;;;;;;;;;5004557;27;20428;-64
2023/03/23 14:13:32;;;;;;;1.92;0.90;;;;;;;;;;5000658;28;20054;-65
2023/03/23 14:16:21;;;;;;;3.53;1.10;;;;;;;;;;5000612;28;20087;-66
2023/03/23 14:19:30;;;;;;;4.22;1.40;;;;;;;;;;4949082;28;20050;-66
2023/03/23 14:22:06;;;;;;;3.75;0.95;;;;;;;;;;5002059;28;20198;-66
2023/03/23 14:24:34;;;;;;;6.45;1.13;;;;;;;;;;5008172;28;20061;-66
2023/03/23 14:27:11;;;;;;;4.70;1.20;;;;;;;;;;4964984;28;20066;-67
2023/03/23 14:37:37;;;;;;;;;;;;;;;;;;;;;
2023/03/23 14:42:36;;;;;;;4.07;1.08;;;;;;;;;;4854339;29;20056;-66
2023/03/23 14:45:05;;;;;;;6.40;1.05;;;;;;;;;;4910368;28;20067;-67
2023/03/23 14:47:31;;;;;;;;;;;;;;;;;;4923185;28;20063;-65
2023/03/23 14:49:59;;;;;;;5.95;1.40;;;;;;;;;;4915807;28;19923;-65
2023/03/23 14:52:26;;;;;;;2.40;0.80;;;;;;;;;;4957490;28;20169;-66
2023/03/23 14:54:53;;;;;;;5.95;1.25;;;;;;;;;;4982889;28;20056;-66
2023/03/23 14:57:21;;;;;;;7.80;1.00;;;;;;;;;;5005681;28;20065;-66
2023/03/23 14:59:49;;;;;;;6.68;1.30;;;;;;;;;;4999145;28;20081;-65
2023/03/23 15:02:25;;;;;;;6.40;1.10;;;;;;;;;;4999139;28;20088;-63
2023/03/23 15:04:55;;;;;;;5.72;1.40;;;;;;;;;;5004531;28;20068;-66
2023/03/23 15:07:25;;;;;;;5.07;1.10;;;;;;;;;;4968003;28;20081;-65
2023/03/23 15:09:51;;;;;;;5.72;1.23;;;;;;;;;;5005366;28;20054;-66
2023/03/23 15:12:21;;;;;;;7.28;1.75;;;;;;;;;;5012463;28;20096;-66
2023/03/23 15:14:50;;;;;;;6.70;1.60;;;;;;;;;;5013115;28;20049;-65
2023/03/23 15:17:24;;;;;;;5.28;1.13;;;;;;;;;;4986374;28;20064;-66
2023/03/23 15:19:51;;;;;;;5.18;1.30;;;;;;;;;;4992754;28;20053;-65
2023/03/23 15:22:19;;;;;;;3.63;1.20;;;;;;;;;;4972895;28;20133;-65
2023/03/23 15:24:48;;;;;;;;;;;;;;;;;;5003014;28;20062;-65
2023/03/23 15:27:15;;;;;;;5.13;1.25;;;;;;;;;;4990440;28;20024;-66
2023/03/23 15:29:53;;;;;;;3.88;1.10;;;;;;;;;;5002374;28;20133;-65
2023/03/23 15:32:24;;;;;;;4.93;1.10;;;;;;;;;;4982070;28;20053;-66
2023/03/23 15:34:53;;;;;;;3.45;1.13;;;;;;;;;;4986161;28;20078;-64
2023/03/23 15:37:24;;;;;;;3.67;1.20;;;;;;;;;;4982935;28;21275;-65
2023/03/23 15:39:51;;;;;;;4.47;1.63;;;;;;;;;;4969383;28;20054;-64
2023/03/23 15:42:22;;;;;;;4.60;1.15;;;;;;;;;;4982559;28;20154;-64
2023/03/23 15:44:59;;;;;;;4.50;1.13;;;;;;;;;;4987831;28;20088;-64
2023/03/23 15:47:37;;;;;;;4.22;1.10;;;;;;;;;;4980762;28;20111;-64
2023/03/23 15:50:11;;;;;;;3.63;1.30;;;;;;;;;;4980914;28;20065;-64
2023/03/23 15:52:37;;;;;;;3.80;1.13;;;;;;;;;;4991819;28;20135;-64
2023/03/23 15:55:04;;;;;;;4.65;1.30;;;;;;;;;;4972883;28;20143;-63
2023/03/23 15:57:30;;;;;;;5.50;1.20;;;;;;;;;;4980435;28;20121;-64
2023/03/23 15:59:59;;;;;;;3.03;1.00;;;;;;;;;;4983537;28;20062;-65
2023/03/23 16:02:25;;;;;;;4.15;1.33;;;;;;;;;;4983293;28;20050;-64
2023/03/23 16:04:52;;;;;;;4.65;1.13;;;;;;;;;;4966898;28;20107;-64
2023/03/23 16:07:21;;;;;;;7.82;1.33;;;;;;;;;;4991812;28;20140;-64
2023/03/23 16:09:47;;;;;;;;;;;;;;;;;;4995670;28;20065;-63
2023/03/23 16:12:14;;;;;;;3.45;1.00;;;;;;;;;;5000053;28;19973;-64
2023/03/23 16:14:40;;;;;;;5.57;1.30;;;;;;;;;;4997210;28;20054;-65
2023/03/23 16:17:10;;;;;;;4.63;1.45;;;;;;;;;;4993720;28;20058;-63